Strona główna
METAR-TAF:

METAR-TAF

Lotnisko :

Port lotniczy Comalapa

Salwador, Salwador

Szerokość geograficzna: 13-26N, Długość geograficzna: 089-03W, wysokość: 25 m

Aktualna obserwacja pogody

Raport powstał 1 godzina i 3 minut temu, godzina 23:50 UTC
Wiatr 10 kt od północ w porywach dochodzący do 20 kt, zmienny między północno-północny zachód i północny wschód
Temperatura 28°C
Wilgotność 45%
Ciśnienie 1013 hPa
Widzialność 10 km lub więcej
Brak chmur poniżej 1500 m i brak chmur cumulonimbus

METAR: MSLP 162350Z 01010G20KT 340V040 CAVOK 28/15 Q1012 A2990 NOSIG

czas: 18:53 (00:53 UTC)

Prognoza

Raport powstał 3 godziny i 28 minut temu, godzina 21:25 UTC
Prognoza ważna od 17 godzina 00 UTC do 17 godzina 24 UTC
Wiatr 12 kt od północ w porywach dochodzący do 24 kt
Widzialność 10 km lub więcej
Brak chmur poniżej 1500 m i brak chmur cumulonimbus

TAF: MSLP 162125Z 1700/1724 01012G24KT CAVOK TX33/1718Z TN22/1711Z

Obserwacja i prognoza pogody dla ponad 4000 lotnisk (raport METAR i TAF).

Dostępne stacje oznaczono żółtymi i czerwonymi punktami na mapie.

Najedź kursorem aby zobaczyć nazwę stacji.

Kliknij aby zobaczyć obserwacje i prognozy pogody.

Aby zmienić mapę: kliknij na zielony przycisk z czarnym krzyżykiem, aby powiększyć; na zielony przycisk z myślnikiem, aby pomniejszyć; na zielone strzałki, aby przejść do map sąsiednich.


METAR-TAF: